Time;durP1;ratioP1;P1;durP2;ratioP2;P2;SDS_P1;SDS_P2;PMS_P1;PMS_P2;Temp;Humidity;BMP_temperature;BMP_pressure;BME280_temperature;BME280_humidity;BME280_pressure;Samples;Min_cycle;Max_cycle;Signal;HPM_P1;HPM_P2
2023/01/14 00:00:22;;;;;;;45.95;10.40;;;;;;;5.56;98.52;101383.66;5055913;28;20499;-56
2023/01/14 00:02:48;;;;;;;50.33;9.70;;;;;;;5.49;99.06;101379.88;5055672;28;20033;-56
2023/01/14 00:05:13;;;;;;;57.25;9.65;;;;;;;5.41;98.98;101383.63;5055084;28;20024;-56
2023/01/14 00:07:38;;;;;;;50.78;8.90;;;;;;;5.36;99.65;101385.94;5055394;28;20488;-56
2023/01/14 00:10:04;;;;;;;43.88;8.55;;;;;;;5.37;99.81;101397.94;5055596;28;20123;-56
2023/01/14 00:12:29;;;;;;;45.00;10.27;;;;;;;5.30;99.91;101394.91;5054625;28;20461;-56
2023/01/14 00:14:55;;;;;;;50.70;9.40;;;;;;;5.24;99.83;101398.88;5055746;28;20033;-56
2023/01/14 00:17:20;;;;;;;52.80;13.82;;;;;;;5.19;100.00;101397.69;5055367;28;20528;-56
2023/01/14 00:19:45;;;;;;;50.55;9.77;;;;;;;5.13;100.00;101402.44;5054407;28;20029;-56
2023/01/14 00:22:11;;;;;;;46.67;9.95;;;;;;;5.11;100.00;101401.44;5055377;28;20028;-56
2023/01/14 00:24:36;;;;;;;48.15;9.80;;;;;;;5.09;100.00;101405.59;5055114;28;20029;-56
2023/01/14 00:27:01;;;;;;;47.85;10.23;;;;;;;5.08;100.00;101406.38;5054602;28;20408;-57
2023/01/14 00:29:32;;;;;;;42.33;9.18;;;;;;;5.03;100.00;101411.19;5055414;28;20108;-56
2023/01/14 00:32:00;;;;;;;53.17;14.20;;;;;;;5.01;100.00;101406.78;5054984;28;20029;-56
2023/01/14 00:34:27;;;;;;;49.63;9.65;;;;;;;4.94;100.00;101401.34;5054437;28;20037;-56
2023/01/14 00:36:53;;;;;;;54.17;12.80;;;;;;;4.92;100.00;101392.69;5055231;28;20059;-56
2023/01/14 00:39:19;;;;;;;58.25;10.77;;;;;;;4.90;100.00;101394.25;5055025;28;20837;-56
2023/01/14 00:41:45;;;;;;;64.40;11.63;;;;;;;4.82;100.00;101405.66;5054181;28;20040;-56
2023/01/14 00:44:10;;;;;;;49.80;9.38;;;;;;;4.80;100.00;101406.38;5055234;28;20499;-56
2023/01/14 00:46:37;;;;;;;53.20;9.48;;;;;;;4.74;100.00;101406.88;5054623;28;20033;-56
2023/01/14 00:49:05;;;;;;;57.25;10.02;;;;;;;4.65;100.00;101396.06;5054137;28;20033;-56
2023/01/14 00:51:31;;;;;;;57.72;10.93;;;;;;;4.65;100.00;101401.16;5054524;28;20071;-56
2023/01/14 00:54:01;;;;;;;48.60;9.07;;;;;;;4.59;100.00;101402.56;5054771;28;20094;-56
2023/01/14 00:56:27;;;;;;;56.30;9.13;;;;;;;4.58;100.00;101397.34;5054161;28;20074;-56
2023/01/14 00:58:53;;;;;;;48.58;9.07;;;;;;;4.55;100.00;101408.25;5054938;28;20112;-56
2023/01/14 01:01:18;;;;;;;49.70;9.52;;;;;;;4.57;100.00;101400.69;5054136;28;20119;-56
2023/01/14 01:03:49;;;;;;;60.35;10.45;;;;;;;4.54;100.00;101414.16;5054559;28;20024;-56
2023/01/14 01:06:16;;;;;;;64.63;10.57;;;;;;;4.53;100.00;101409.84;5054550;28;20048;-56
2023/01/14 01:08:42;;;;;;;60.83;12.45;;;;;;;4.55;100.00;101398.03;5053590;28;20026;-56
2023/01/14 01:11:08;;;;;;;72.53;11.38;;;;;;;4.55;100.00;101400.59;5054770;28;20028;-56
2023/01/14 01:13:34;;;;;;;65.18;10.73;;;;;;;4.60;100.00;101417.09;5054335;28;20092;-56
2023/01/14 01:16:02;;;;;;;69.63;11.32;;;;;;;4.61;100.00;101408.66;5053686;28;20136;-56
2023/01/14 01:18:27;;;;;;;69.03;11.45;;;;;;;4.65;100.00;101406.28;5053987;28;20028;-56
2023/01/14 01:21:08;;;;;;;69.13;12.02;;;;;;;4.66;100.00;101413.16;5054209;28;20025;-56
2023/01/14 01:23:35;;;;;;;60.53;11.15;;;;;;;4.63;100.00;101405.31;5053506;28;20033;-56
2023/01/14 01:26:02;;;;;;;66.93;11.15;;;;;;;4.58;100.00;101405.91;5054380;28;20060;-56
2023/01/14 01:28:28;;;;;;;77.53;12.25;;;;;;;4.57;100.00;101399.03;5053885;28;20468;-56
2023/01/14 01:30:53;;;;;;;80.18;11.98;;;;;;;4.56;100.00;101399.81;5053391;28;20021;-56
2023/01/14 01:33:18;;;;;;;70.15;11.85;;;;;;;4.56;100.00;101399.81;5053998;28;20021;-56
2023/01/14 01:35:44;;;;;;;72.00;12.68;;;;;;;4.53;100.00;101396.19;5053781;28;20033;-56
2023/01/14 01:38:09;;;;;;;67.68;12.73;;;;;;;4.49;100.00;101395.09;5053287;28;20029;-56
2023/01/14 01:40:35;;;;;;;78.85;12.48;;;;;;;4.48;100.00;101393.38;5053881;28;20492;-56
2023/01/14 01:43:00;;;;;;;79.63;13.30;;;;;;;4.44;100.00;101402.50;5053338;28;20089;-56
2023/01/14 01:45:38;;;;;;;65.65;11.68;;;;;;;4.47;100.00;101401.81;5053296;28;20100;-56
2023/01/14 01:48:23;;;;;;;;;;;;;;;4.49;100.00;101405.31;5054239;28;20036;-56
2023/01/14 01:50:58;;;;;;;82.63;11.73;;;;;;;4.45;100.00;101398.25;5045286;28;19919;-56
2023/01/14 01:53:25;;;;;;;79.07;11.65;;;;;;;4.44;100.00;101399.03;5053627;28;20563;-56
2023/01/14 01:55:53;;;;;;;84.85;13.18;;;;;;;4.43;100.00;101402.41;5053282;28;20484;-56
2023/01/14 01:58:20;;;;;;;74.15;12.15;;;;;;;4.45;100.00;101403.34;5052845;28;20407;-56
2023/01/14 02:00:46;;;;;;;61.92;11.43;;;;;;;4.45;100.00;101399.16;5053179;28;20024;-56
2023/01/14 02:03:17;;;;;;;82.57;13.00;;;;;;;4.42;100.00;101409.16;5053494;28;20021;-56
2023/01/14 02:05:43;;;;;;;91.70;13.55;;;;;;;4.44;100.00;101401.59;5052227;28;20059;-56
2023/01/14 02:08:09;;;;;;;76.85;12.75;;;;;;;4.44;100.00;101392.28;5053508;28;20110;-56
2023/01/14 02:11:09;;;;;;;83.30;12.43;;;;;;;4.47;100.00;101404.34;5053135;28;20021;-56
2023/01/14 02:13:50;;;;;;;94.45;13.43;;;;;;;4.39;100.00;101392.75;5043814;28;20389;-56
2023/01/14 02:16:18;;;;;;;86.50;13.15;;;;;;;4.36;100.00;101387.47;5053557;28;20029;-56
2023/01/14 02:19:03;;;;;;;94.75;12.65;;;;;;;4.36;100.00;101378.13;5052399;28;20032;-56
2023/01/14 02:21:33;;;;;;;76.82;11.57;;;;;;;4.35;100.00;101370.38;5052837;28;20520;-56
2023/01/14 02:24:33;;;;;;;83.00;14.00;;;;;;;4.36;100.00;101356.84;5053381;28;20025;-56
2023/01/14 02:27:17;;;;;;;84.75;12.75;;;;;;;4.32;100.00;101339.59;5052494;28;20039;-56
2023/01/14 02:30:06;;;;;;;90.80;12.68;;;;;;;4.29;100.00;101338.59;5052909;28;20031;-56
2023/01/14 02:32:39;;;;;;;77.03;13.15;;;;;;;4.31;100.00;101337.81;5052917;28;20094;-56
2023/01/14 02:35:14;;;;;;;83.72;12.68;;;;;;;4.29;100.00;101327.50;5053186;28;20100;-56
2023/01/14 02:37:51;;;;;;;86.20;13.07;;;;;;;4.24;100.00;101322.09;5052621;28;20403;-56
2023/01/14 02:40:28;;;;;;;100.15;14.95;;;;;;;4.24;100.00;101309.34;5052499;28;20028;-56
2023/01/14 02:45:52;;;;;;;77.47;11.68;;;;;;;4.17;100.00;101302.13;5053083;28;19958;-56
2023/01/14 02:48:20;;;;;;;87.13;12.95;;;;;;;4.15;100.00;101308.78;5052140;28;20036;-56
2023/01/14 02:50:45;;;;;;;91.60;13.77;;;;;;;4.12;100.00;101303.50;5052734;28;20021;-56
2023/01/14 02:53:17;;;;;;;82.20;13.25;;;;;;;4.07;100.00;101300.66;5052738;28;20086;-56
2023/01/14 02:55:43;;;;;;;79.90;12.93;;;;;;;4.09;100.00;101300.72;5051671;28;20464;-56
2023/01/14 02:58:32;;;;;;;103.35;13.85;;;;;;;4.07;100.00;101297.22;5052704;28;20116;-56
2023/01/14 03:01:44;;;;;;;99.55;13.98;;;;;;;4.13;100.00;101302.69;5051886;28;20025;-56
2023/01/14 03:04:21;;;;;;;97.40;13.60;;;;;;;4.14;100.00;101296.81;5052258;28;20032;-56
2023/01/14 03:07:26;;;;;;;93.85;13.43;;;;;;;4.13;100.00;101297.59;5052255;28;20936;-56
2023/01/14 03:10:07;;;;;;;97.78;13.40;;;;;;;4.15;100.00;101301.13;5040224;28;20115;-55
2023/01/14 03:12:42;;;;;;;86.85;12.88;;;;;;;4.12;100.00;101288.19;5052558;28;20017;-56
2023/01/14 03:15:25;;;;;;;85.07;12.02;;;;;;;4.17;100.00;101281.72;5051941;28;20029;-56
2023/01/14 03:18:09;;;;;;;82.93;12.45;;;;;;;4.16;100.00;101272.28;5052398;28;20037;-56
2023/01/14 03:20:38;;;;;;;82.78;12.13;;;;;;;4.20;100.00;101269.13;5052400;28;20068;-56
2023/01/14 03:23:12;;;;;;;83.63;12.60;;;;;;;4.24;100.00;101265.09;5051834;28;20025;-56
2023/01/14 03:25:43;;;;;;;92.25;13.13;;;;;;;4.25;100.00;101264.31;5052158;28;20033;-56
2023/01/14 03:28:14;;;;;;;79.03;12.52;;;;;;;4.24;100.00;101262.56;5052337;28;20465;-56
2023/01/14 03:30:42;;;;;;;96.28;12.27;;;;;;;4.25;100.00;101267.75;5051596;28;20037;-56
2023/01/14 03:33:20;;;;;;;87.22;12.68;;;;;;;4.26;100.00;101261.88;5052516;28;20090;-56
2023/01/14 03:35:47;;;;;;;89.15;12.90;;;;;;;4.25;100.00;101255.00;5052060;28;20029;-56
2023/01/14 03:38:20;;;;;;;91.03;12.02;;;;;;;4.28;100.00;101247.50;5051607;28;20029;-56
2023/01/14 03:40:50;;;;;;;84.75;12.65;;;;;;;4.32;100.00;101252.81;5052238;28;20086;-56
2023/01/14 03:43:21;;;;;;;97.78;12.70;;;;;;;4.33;100.00;101247.81;5051638;28;20036;-56
2023/01/14 03:45:48;;;;;;;81.22;12.93;;;;;;;4.34;100.00;101247.03;5052193;28;20029;-56
2023/01/14 03:48:14;;;;;;;83.40;11.43;;;;;;;4.37;100.00;101251.44;5052281;28;20384;-56
2023/01/14 03:50:49;;;;;;;91.65;12.60;;;;;;;4.38;100.00;101248.09;5051236;28;20032;-56
2023/01/14 03:53:22;;;;;;;90.63;12.55;;;;;;;4.41;100.00;101235.50;5052146;28;20037;-56
2023/01/14 03:55:52;;;;;;;73.53;11.43;;;;;;;4.42;100.00;101230.50;5052058;28;20040;-56
2023/01/14 03:58:28;;;;;;;81.95;12.02;;;;;;;4.47;100.00;101233.34;5051321;28;20464;-56
2023/01/14 04:00:57;;;;;;;70.10;11.02;;;;;;;4.52;100.00;101231.94;5052411;28;20083;-56
2023/01/14 04:03:24;;;;;;;71.88;10.55;;;;;;;4.55;100.00;101226.16;5052034;28;20488;-56
2023/01/14 04:05:52;;;;;;;72.78;10.85;;;;;;;4.58;100.00;101222.13;5051196;28;20040;-56
2023/01/14 04:08:20;;;;;;;76.78;9.93;;;;;;;4.59;100.00;101212.78;5055944;28;20021;-56
2023/01/14 04:10:45;;;;;;;64.97;11.07;;;;;;;4.63;100.00;101203.63;5055594;28;20025;-56
2023/01/14 04:15:58;;;;;;;70.93;11.10;;;;;;;4.69;100.00;101187.00;5055849;28;20043;-56
2023/01/14 04:18:23;;;;;;;67.95;10.13;;;;;;;4.70;100.00;101182.75;5054903;28;20104;-56
2023/01/14 04:20:49;;;;;;;77.05;11.40;;;;;;;4.70;100.00;101183.66;5055319;28;20040;-56
2023/01/14 04:23:14;;;;;;;68.85;10.93;;;;;;;4.69;100.00;101181.03;5055519;28;20029;-56
2023/01/14 04:25:39;;;;;;;69.80;9.93;;;;;;;4.69;100.00;101176.78;5054415;28;20459;-56
2023/01/14 04:28:05;;;;;;;70.65;11.13;;;;;;;4.71;100.00;101166.66;5055373;28;20032;-56
2023/01/14 04:30:30;;;;;;;85.22;10.23;;;;;;;4.70;100.00;101163.22;5055004;28;20376;-56
2023/01/14 04:32:55;;;;;;;81.32;12.10;;;;;;;4.67;100.00;101159.59;5054640;28;20037;-56
2023/01/14 04:35:20;;;;;;;69.88;10.38;;;;;;;4.65;100.00;101154.41;5055126;28;20354;-56
2023/01/14 04:37:46;;;;;;;71.88;10.65;;;;;;;4.66;100.00;101152.72;5054801;28;20056;-56
2023/01/14 04:40:11;;;;;;;78.38;10.48;;;;;;;4.62;100.00;101146.56;5054469;28;20057;-56
2023/01/14 04:42:36;;;;;;;68.80;9.93;;;;;;;4.61;100.00;101148.25;5054779;28;20032;-56
2023/01/14 04:45:04;;;;;;;79.38;12.40;;;;;;;4.61;100.00;101137.16;5055014;28;20017;-56
2023/01/14 04:47:30;;;;;;;71.80;9.60;;;;;;;4.59;100.00;101147.25;5054063;28;20108;-56
2023/01/14 04:49:56;;;;;;;72.90;10.98;;;;;;;4.56;100.00;101147.09;5055165;28;20214;-56
2023/01/14 04:52:26;;;;;;;81.47;11.50;;;;;;;4.55;100.00;101145.34;5055109;28;20456;-56
2023/01/14 04:54:52;;;;;;;80.55;11.82;;;;;;;4.52;100.00;101145.16;5053889;28;20029;-56
2023/01/14 04:57:17;;;;;;;66.60;12.07;;;;;;;4.49;100.00;101144.97;5054839;28;20033;-56
2023/01/14 04:59:43;;;;;;;76.85;11.75;;;;;;;4.48;100.00;101133.03;5054355;28;20027;-56
2023/01/14 05:02:08;;;;;;;65.72;10.35;;;;;;;4.47;100.00;101128.69;5054119;28;20134;-55
2023/01/14 05:04:34;;;;;;;66.13;9.98;;;;;;;4.49;100.00;101128.78;5054594;28;20032;-56
2023/01/14 05:07:02;;;;;;;62.65;9.95;;;;;;;4.47;100.00;101125.25;5054478;28;20098;-56
2023/01/14 05:09:27;;;;;;;57.85;9.55;;;;;;;4.47;100.00;101115.94;5053694;28;20031;-56
2023/01/14 05:11:53;;;;;;;65.15;9.45;;;;;;;4.50;100.00;101107.56;5054700;28;20107;-56
2023/01/14 05:14:18;;;;;;;56.33;10.02;;;;;;;4.50;100.00;101100.78;5054474;28;20036;-56
2023/01/14 05:16:43;;;;;;;60.05;10.38;;;;;;;4.52;100.00;101103.41;5053345;28;20029;-55
2023/01/14 05:19:09;;;;;;;59.95;8.85;;;;;;;4.54;100.00;101101.84;5053298;28;20021;-56
2023/01/14 05:21:34;;;;;;;60.10;9.35;;;;;;;4.52;100.00;101095.75;5053417;28;20468;-56
2023/01/14 05:23:59;;;;;;;61.13;10.02;;;;;;;4.54;100.00;101087.41;5054502;28;20029;-56
2023/01/14 05:26:25;;;;;;;65.90;9.15;;;;;;;4.55;100.00;101081.50;5054352;28;20142;-56
2023/01/14 05:28:50;;;;;;;70.53;9.93;;;;;;;4.59;100.00;101074.91;5053114;28;20021;-56
2023/01/14 05:31:15;;;;;;;60.35;9.60;;;;;;;4.61;100.00;101069.09;5054277;28;20021;-56
2023/01/14 05:33:40;;;;;;;62.88;10.52;;;;;;;4.63;100.00;101066.63;5053923;28;20061;-54
2023/01/14 05:36:06;;;;;;;54.92;9.18;;;;;;;4.68;100.00;101049.91;5053232;28;20123;-56
2023/01/14 05:38:31;;;;;;;48.88;9.07;;;;;;;4.70;100.00;101039.78;5053785;28;20530;-56
2023/01/14 05:40:57;;;;;;;72.60;10.20;;;;;;;4.72;100.00;101030.53;5053967;28;20376;-56
2023/01/14 05:46:12;;;;;;;51.38;9.35;;;;;;;4.73;100.00;101033.19;5054191;28;20103;-56
2023/01/14 05:48:37;;;;;;;64.80;10.52;;;;;;;4.74;100.00;101017.06;5053590;28;20099;-56
2023/01/14 05:51:04;;;;;;;51.63;8.85;;;;;;;4.76;100.00;101012.03;5053069;28;20477;-56
2023/01/14 05:53:29;;;;;;;67.40;9.93;;;;;;;4.79;100.00;101002.03;5053646;28;20021;-56
2023/01/14 05:55:56;;;;;;;66.18;10.30;;;;;;;4.85;100.00;101004.03;5053646;28;20028;-56
2023/01/14 05:58:22;;;;;;;57.65;9.52;;;;;;;4.85;100.00;100988.69;5053105;28;20021;-56
2023/01/14 06:06:22;;;;;;;59.20;8.68;;;;;;;4.91;100.00;100966.91;5053628;28;20128;-56
2023/01/14 06:09:00;;;;;;;59.92;8.52;;;;;;;4.94;100.00;100966.22;5053280;28;20035;-56
2023/01/14 06:11:27;;;;;;;52.67;9.27;;;;;;;4.94;100.00;100966.22;5052746;28;20075;-56
2023/01/14 06:13:56;;;;;;;57.35;8.65;;;;;;;4.96;100.00;100959.53;5053581;28;20110;-56
2023/01/14 06:16:23;;;;;;;55.00;8.05;;;;;;;5.01;100.00;100953.00;5053351;28;20035;-56
2023/01/14 06:18:48;;;;;;;57.30;9.18;;;;;;;5.03;100.00;100945.41;5052114;28;20049;-55
2023/01/14 06:21:17;;;;;;;51.33;8.18;;;;;;;5.04;100.00;100948.03;5053470;28;20102;-56
2023/01/14 06:23:42;;;;;;;53.80;8.77;;;;;;;5.03;100.00;100942.84;5052946;28;20364;-56
2023/01/14 06:26:10;;;;;;;50.20;9.02;;;;;;;5.03;100.00;100930.06;5052551;28;20017;-56
2023/01/14 06:28:35;;;;;;;61.03;9.48;;;;;;;5.02;100.00;100933.41;5052659;28;20017;-56
2023/01/14 06:31:01;;;;;;;51.60;8.88;;;;;;;5.05;100.00;100913.16;5053096;28;20116;-56
2023/01/14 06:33:26;;;;;;;47.78;7.90;;;;;;;5.01;100.00;100907.00;5052292;28;20039;-56
2023/01/14 06:35:51;;;;;;;57.80;8.60;;;;;;;5.00;100.00;100909.50;5052853;28;20031;-56
2023/01/14 06:38:17;;;;;;;50.10;9.18;;;;;;;5.01;100.00;100895.88;5053187;28;20016;-56
2023/01/14 06:40:42;;;;;;;50.75;9.07;;;;;;;5.01;100.00;100890.78;5052075;28;20472;-56
2023/01/14 06:43:08;;;;;;;53.05;8.85;;;;;;;5.01;100.00;100875.47;5053128;28;20562;-56
2023/01/14 06:45:35;;;;;;;62.15;9.60;;;;;;;5.01;100.00;100881.47;5052621;28;20028;-56
2023/01/14 06:48:00;;;;;;;53.67;8.23;;;;;;;5.01;100.00;100870.34;5052000;28;20163;-56
2023/01/14 06:50:26;;;;;;;55.20;8.70;;;;;;;5.02;100.00;100865.34;5053075;28;20033;-56
2023/01/14 06:52:52;;;;;;;47.95;8.55;;;;;;;5.01;100.00;100863.59;5052377;28;20381;-56
2023/01/14 06:55:19;;;;;;;48.92;7.88;;;;;;;4.99;100.00;100852.41;5052774;28;20078;-56
2023/01/14 06:57:45;;;;;;;54.00;8.27;;;;;;;5.01;100.00;100855.03;5052456;28;20025;-56
2023/01/14 07:00:11;;;;;;;50.40;7.70;;;;;;;5.02;100.00;100850.03;5051968;28;20082;-55
2023/01/14 07:02:37;;;;;;;54.42;9.07;;;;;;;5.04;100.00;100842.44;5052329;28;20086;-56
2023/01/14 07:05:02;;;;;;;53.72;9.05;;;;;;;5.02;100.00;100827.03;5052667;28;20033;-56
2023/01/14 07:07:27;;;;;;;50.22;8.60;;;;;;;5.02;100.00;100821.91;5051375;28;20041;-56
2023/01/14 07:09:53;;;;;;;63.10;9.80;;;;;;;5.01;100.00;100820.16;5052777;28;20488;-56
2023/01/14 07:12:19;;;;;;;48.45;8.88;;;;;;;5.00;100.00;100814.97;5052808;28;20129;-55
2023/01/14 07:14:44;;;;;;;57.42;8.02;;;;;;;5.00;100.00;100803.06;5051595;28;20429;-54
2023/01/14 07:17:09;;;;;;;50.70;9.25;;;;;;;5.01;100.00;100793.72;5052349;28;20021;-56
2023/01/14 07:19:35;;;;;;;55.72;9.38;;;;;;;5.01;100.00;100791.16;5052270;28;20515;-55
2023/01/14 07:22:00;;;;;;;59.90;8.90;;;;;;;5.00;100.00;100774.13;5051896;28;20021;-56
2023/01/14 07:24:25;;;;;;;53.80;8.77;;;;;;;5.00;100.00;100769.00;5052570;28;20431;-55
2023/01/14 07:26:51;;;;;;;59.03;9.55;;;;;;;4.99;100.00;100755.34;5052192;28;20029;-55
2023/01/14 07:29:16;;;;;;;43.60;8.30;;;;;;;5.01;100.00;100760.50;5051713;28;20071;-56
2023/01/14 07:31:41;;;;;;;49.03;9.07;;;;;;;5.04;100.00;100753.03;5052129;28;20358;-56
2023/01/14 07:34:07;;;;;;;44.78;8.25;;;;;;;5.06;100.00;100747.19;5052484;28;20083;-56
2023/01/14 07:36:32;;;;;;;47.67;8.90;;;;;;;5.06;100.00;100746.28;5051378;28;20033;-56
2023/01/14 07:38:58;;;;;;;45.63;8.35;;;;;;;5.05;100.00;100749.69;5052403;28;20044;-56
2023/01/14 07:41:24;;;;;;;41.50;8.05;;;;;;;5.05;100.00;100742.00;5053801;28;20493;-56
2023/01/14 07:43:49;;;;;;;56.75;9.10;;;;;;;5.05;100.00;100727.56;5055038;28;20108;-56
2023/01/14 07:46:16;;;;;;;45.05;7.95;;;;;;;5.07;100.00;100719.97;5055994;28;20384;-56
2023/01/14 07:48:42;;;;;;;39.60;8.68;;;;;;;5.06;100.00;100711.44;5055875;28;20060;-56
2023/01/14 07:51:08;;;;;;;44.47;8.82;;;;;;;5.07;100.00;100704.63;5055470;28;20025;-56
2023/01/14 07:53:35;;;;;;;43.95;8.40;;;;;;;5.09;100.00;100701.34;5055750;28;20058;-56
2023/01/14 07:56:02;;;;;;;44.05;9.65;;;;;;;5.11;100.00;100688.66;5056030;28;20373;-56
2023/01/14 07:58:27;;;;;;;35.58;9.23;;;;;;;5.11;100.00;100679.31;5055088;28;20108;-56
2023/01/14 08:00:53;;;;;;;44.90;9.48;;;;;;;5.13;100.00;100674.28;5055870;28;20459;-56
2023/01/14 08:03:19;;;;;;;43.60;8.23;;;;;;;5.13;100.00;100671.72;5055159;28;20033;-56
2023/01/14 08:05:44;;;;;;;35.67;9.10;;;;;;;5.18;100.00;100654.94;5055315;28;20358;-57
2023/01/14 08:08:10;;;;;;;34.28;8.50;;;;;;;5.19;100.00;100646.47;5055727;28;20461;-56
2023/01/14 08:10:35;;;;;;;37.10;9.13;;;;;;;5.21;100.00;100637.19;5054718;28;20087;-56
2023/01/14 08:13:00;;;;;;;23.75;7.68;;;;;;;5.25;100.00;100626.34;5055710;28;20400;-56
2023/01/14 08:15:26;;;;;;;43.42;8.60;;;;;;;5.29;100.00;100612.00;5055595;28;20029;-56
2023/01/14 08:17:53;;;;;;;27.63;7.78;;;;;;;5.31;100.00;100612.06;5054301;28;20036;-56
2023/01/14 08:20:22;;;;;;;31.20;8.77;;;;;;;5.34;100.00;100614.78;5055508;28;20598;-56
2023/01/14 08:22:47;;;;;;;35.63;8.35;;;;;;;5.34;100.00;100597.78;5055161;28;20025;-56
2023/01/14 08:25:12;;;;;;;32.33;7.53;;;;;;;5.36;100.00;100585.94;5054668;28;20047;-56
2023/01/14 08:27:38;;;;;;;37.05;8.25;;;;;;;5.37;100.00;100590.25;5055237;28;20460;-56
2023/01/14 08:30:04;;;;;;;26.58;7.90;;;;;;;5.39;100.00;100575.84;5055385;28;20029;-56
2023/01/14 08:32:29;;;;;;;32.85;7.38;;;;;;;5.44;100.00;100563.31;5054685;28;20025;-56
2023/01/14 08:34:55;;;;;;;28.90;7.40;;;;;;;5.49;100.00;100554.16;5055323;28;20032;-56
2023/01/14 08:37:20;;;;;;;21.70;7.00;;;;;;;5.54;100.00;100549.25;5055205;28;20039;-54
2023/01/14 08:39:45;;;;;;;22.83;6.75;;;;;;;5.56;100.00;100543.38;5054117;28;20107;-56
2023/01/14 08:42:10;;;;;;;21.25;6.28;;;;;;;5.58;100.00;100531.56;5055013;28;20028;-56
2023/01/14 08:44:36;;;;;;;24.58;5.97;;;;;;;5.59;100.00;100541.00;5054598;28;20033;-56
2023/01/14 08:47:01;;;;;;;22.90;6.40;;;;;;;5.60;100.00;100527.41;5054347;28;20025;-55
2023/01/14 08:49:28;;;;;;;21.75;5.95;;;;;;;5.64;100.00;100507.06;5055146;28;20033;-55
2023/01/14 08:51:55;;;;;;;21.08;5.32;;;;;;;5.65;100.00;100503.72;5054770;28;20028;-56
2023/01/14 08:54:21;;;;;;;20.13;6.50;;;;;;;5.70;100.00;100484.34;5054257;28;20129;-56
2023/01/14 08:56:46;;;;;;;21.77;5.68;;;;;;;5.74;100.00;100478.53;5054631;28;20547;-56
2023/01/14 08:59:12;;;;;;;20.00;5.47;;;;;;;5.79;100.00;100482.19;5054743;28;20025;-56
2023/01/14 09:01:37;;;;;;;25.40;6.15;;;;;;;5.80;100.00;100460.03;5053792;28;20024;-56
2023/01/14 09:04:02;;;;;;;18.08;5.18;;;;;;;5.82;100.00;100451.59;5054852;28;20029;-56
2023/01/14 09:06:28;;;;;;;16.10;5.15;;;;;;;5.86;100.00;100450.94;5054183;28;20503;-56
2023/01/14 09:17:15;;;;;;;19.17;5.35;;;;;;;5.96;100.00;100435.97;5054680;28;20465;-55
2023/01/14 09:19:45;;;;;;;17.60;5.20;;;;;;;5.97;100.00;100436.03;5054109;28;20028;-56
2023/01/14 09:22:13;;;;;;;16.88;4.93;;;;;;;5.99;100.00;100424.22;5053587;28;20021;-56
2023/01/14 09:24:38;;;;;;;19.67;5.82;;;;;;;6.01;100.00;100414.06;5054201;28;20036;-56
2023/01/14 09:27:04;;;;;;;22.58;5.25;;;;;;;6.02;100.00;100408.13;5054279;28;20029;-55
2023/01/14 09:29:29;;;;;;;23.17;5.93;;;;;;;6.07;100.00;100404.94;5053271;28;20057;-55
2023/01/14 09:31:54;;;;;;;16.35;5.13;;;;;;;6.06;100.00;100392.09;5054096;28;20032;-55
2023/01/14 09:34:20;;;;;;;18.73;5.53;;;;;;;6.08;100.00;100380.22;5054003;28;20456;-56
2023/01/14 09:36:45;;;;;;;21.20;5.40;;;;;;;6.10;100.00;100376.06;5052841;28;20039;-56
2023/01/14 09:39:11;;;;;;;24.75;6.55;;;;;;;6.12;100.00;100365.88;5053936;28;20479;-55
2023/01/14 09:41:45;;;;;;;35.97;13.82;;;;;;;6.13;100.00;100365.94;5053760;28;20074;-56
2023/01/14 09:44:11;;;;;;;42.53;21.75;;;;;;;6.14;100.00;100357.44;5054025;28;20063;-56
2023/01/14 09:46:37;;;;;;;32.22;8.15;;;;;;;6.18;100.00;100345.66;5053527;28;20036;-56
2023/01/14 09:49:04;;;;;;;24.98;7.18;;;;;;;6.19;100.00;100338.03;5052959;28;20029;-56
2023/01/14 09:51:50;;;;;;;20.45;5.90;;;;;;;6.26;100.00;100346.81;5053440;28;20439;-56
2023/01/14 09:54:18;;;;;;;22.20;7.90;;;;;;;6.25;100.00;100340.84;5053933;28;20114;-56
2023/01/14 09:56:58;;;;;;;26.05;6.28;;;;;;;6.28;100.00;100331.53;5052624;28;20159;-55
2023/01/14 09:59:56;;;;;;;25.00;5.95;;;;;;;6.31;100.00;100329.09;5053538;28;20124;-55
2023/01/14 10:02:39;;;;;;;27.25;8.02;;;;;;;6.34;100.00;100309.59;5053728;28;20021;-55
2023/01/14 10:05:18;;;;;;;31.42;10.52;;;;;;;6.38;100.00;100313.16;5052208;28;20503;-56
2023/01/14 10:07:44;;;;;;;30.27;8.50;;;;;;;6.40;100.00;100311.50;5053045;28;20083;-56
2023/01/14 10:10:37;;;;;;;26.98;7.35;;;;;;;6.43;100.00;100293.72;5052666;28;20021;-55
2023/01/14 10:13:11;;;;;;;27.90;11.18;;;;;;;6.46;100.00;100268.22;5051065;28;20478;-54
2023/01/14 10:15:44;;;;;;;37.85;13.10;;;;;;;6.47;100.00;100264.88;5052996;28;20469;-56
2023/01/14 10:18:33;;;;;;;36.75;16.73;;;;;;;6.52;100.00;100260.78;5052430;28;20380;-55
2023/01/14 10:21:01;;;;;;;22.33;8.63;;;;;;;6.57;100.00;100260.94;5053176;28;20423;-56
2023/01/14 10:23:26;;;;;;;;;;;;;;;6.65;100.00;100245.84;5053572;28;20368;-55
2023/01/14 10:25:53;;;;;;;26.57;7.07;;;;;;;6.66;100.00;100224.56;5052262;28;19919;-54
2023/01/14 10:28:26;;;;;;;31.00;5.95;;;;;;;6.73;100.00;100236.78;5053207;28;20362;-55
2023/01/14 10:30:52;;;;;;;23.52;5.90;;;;;;;6.79;100.00;100225.84;5052673;28;20025;-55
2023/01/14 10:33:19;;;;;;;22.42;5.95;;;;;;;6.79;100.00;100216.50;5052469;28;20060;-54
2023/01/14 10:35:52;;;;;;;23.45;6.10;;;;;;;6.84;100.00;100193.59;5052934;28;20044;-55
2023/01/14 10:38:21;;;;;;;17.45;5.78;;;;;;;6.89;100.00;100202.31;5052413;28;20037;-54
2023/01/14 10:40:48;;;;;;;14.52;5.75;;;;;;;6.91;100.00;100205.81;5052720;28;20064;-55
2023/01/14 10:43:37;;;;;;;22.88;5.55;;;;;;;6.98;100.00;100188.94;5053097;28;20052;-56
2023/01/14 10:46:03;;;;;;;22.83;6.25;;;;;;;6.99;100.00;100183.00;5052347;28;20032;-55
2023/01/14 10:48:57;;;;;;;18.75;4.60;;;;;;;7.01;100.00;100161.75;5052679;28;20543;-55
2023/01/14 10:51:47;;;;;;;23.17;5.35;;;;;;;7.04;100.00;100160.97;5052791;28;20075;-55
2023/01/14 10:54:27;;;;;;;20.27;6.20;;;;;;;7.08;100.00;100137.19;5052240;28;20025;-55
2023/01/14 10:56:57;;;;;;;20.50;6.18;;;;;;;7.08;100.00;100132.91;5052707;28;20028;-55
2023/01/14 10:59:44;;;;;;;19.10;4.90;;;;;;;7.14;100.00;100134.81;5052288;28;20043;-55
2023/01/14 11:02:30;;;;;;;16.08;4.30;;;;;;;7.17;100.00;100127.22;5052760;28;20017;-54
2023/01/14 11:04:55;;;;;;;11.88;4.40;;;;;;;7.21;100.00;100123.91;5052383;28;20064;-55
2023/01/14 11:07:26;;;;;;;14.65;4.35;;;;;;;7.22;100.00;100120.53;5051703;28;20043;-56
2023/01/14 11:09:53;;;;;;;18.85;4.82;;;;;;;7.26;100.00;100106.13;5052408;28;20036;-56
2023/01/14 11:12:32;;;;;;;15.80;4.13;;;;;;;7.31;100.00;100088.31;5052568;28;20026;-55
2023/01/14 11:14:59;;;;;;;15.43;4.47;;;;;;;7.32;100.00;100075.56;5052649;28;20033;-55
2023/01/14 11:17:28;;;;;;;14.55;3.92;;;;;;;7.36;100.00;100084.19;5056713;28;20025;-55
2023/01/14 11:20:23;;;;;;;12.57;4.25;;;;;;;7.40;100.00;100073.25;5056647;28;20431;-55
2023/01/14 11:23:00;;;;;;;13.38;3.92;;;;;;;7.40;100.00;100066.41;5056247;28;20021;-55
2023/01/14 11:25:26;;;;;;;12.17;4.03;;;;;;;7.42;100.00;100058.75;5056840;28;20100;-56
2023/01/14 11:27:52;;;;;;;11.63;3.08;;;;;;;7.43;100.00;100057.94;5055581;28;20105;-55
2023/01/14 11:30:18;;;;;;;10.38;3.42;;;;;;;7.49;100.00;100047.88;5056397;28;20415;-56
2023/01/14 11:32:49;;;;;;;11.07;3.50;;;;;;;7.49;100.00;100047.88;5056092;28;20044;-55
2023/01/14 11:35:23;;;;;;;9.30;3.38;;;;;;;7.53;100.00;100038.56;5055623;28;20544;-56
2023/01/14 11:37:49;;;;;;;8.98;2.90;;;;;;;7.55;100.00;100004.47;5056193;28;20064;-55
2023/01/14 11:40:22;;;;;;;10.85;3.22;;;;;;;7.59;100.00;100010.53;5056130;28;20111;-55
2023/01/14 11:42:47;;;;;;;10.30;3.22;;;;;;;7.61;100.00;100011.44;5055334;28;20045;-55
2023/01/14 11:45:13;;;;;;;13.80;4.15;;;;;;;7.61;100.00;100000.34;5056271;28;20035;-55